Time;durP1;ratioP1;P1;durP2;ratioP2;P2;SDS_P1;SDS_P2;PMS_P1;PMS_P2;Temp;Humidity;BMP_temperature;BMP_pressure;BME280_temperature;BME280_humidity;BME280_pressure;Samples;Min_cycle;Max_cycle;Signal;HPM_P1;HPM_P2
2022/09/07 00:00:54;0.00;0.00;0.62;0.00;0.00;0.62;6.60;6.00;;;28.00;30.10;;;;;;2233673;62;20387;-65
2022/09/07 00:03:40;0.00;0.00;0.62;0.00;0.00;0.62;6.30;5.77;;;27.90;30.00;;;;;;2233875;62;20360;-65
2022/09/07 00:06:25;0.00;0.00;0.62;0.00;0.00;0.62;6.03;5.53;;;28.00;30.20;;;;;;2233916;62;20407;-65
2022/09/07 00:09:11;0.00;0.00;0.62;0.00;0.00;0.62;5.80;5.30;;;27.90;30.10;;;;;;2233395;62;20360;-65
2022/09/07 00:11:56;0.00;0.00;0.62;0.00;0.00;0.62;6.87;6.23;;;27.90;30.10;;;;;;2236159;62;20368;-65
2022/09/07 00:14:40;0.00;0.00;0.62;0.00;0.00;0.62;6.23;5.63;;;27.90;30.20;;;;;;2233888;62;20432;-65
2022/09/07 00:17:25;0.00;0.00;0.62;0.00;0.00;0.62;6.10;5.60;;;27.90;30.20;;;;;;2233528;62;20356;-65
2022/09/07 00:20:12;0.00;0.00;0.62;0.00;0.00;0.62;5.77;5.27;;;27.90;30.10;;;;;;2233774;62;20641;-65
2022/09/07 00:22:56;0.00;0.00;0.62;0.00;0.00;0.62;6.07;5.47;;;27.90;30.10;;;;;;2233670;62;20364;-65
2022/09/07 00:25:41;0.00;0.00;0.62;0.00;0.00;0.62;5.80;5.20;;;27.90;30.10;;;;;;2233771;62;20388;-65
2022/09/07 00:28:26;0.00;0.00;0.62;0.00;0.00;0.62;6.83;6.23;;;27.90;30.10;;;;;;2233888;62;20368;-65
2022/09/07 00:31:13;0.00;0.00;0.62;0.00;0.00;0.62;5.43;4.93;;;27.90;30.10;;;;;;2233466;62;20391;-65
2022/09/07 00:34:00;0.00;0.00;0.62;0.00;0.00;0.62;5.00;4.60;;;27.90;30.10;;;;;;2234135;62;20447;-65
2022/09/07 00:36:46;0.00;0.00;0.62;0.00;0.00;0.62;6.37;5.80;;;27.90;30.10;;;;;;2234126;62;20376;-65
2022/09/07 00:39:30;0.00;0.00;0.62;0.00;0.00;0.62;5.80;5.30;;;27.90;30.10;;;;;;2233546;62;20482;-65
2022/09/07 00:42:17;0.00;0.00;0.62;0.00;0.00;0.62;5.57;5.07;;;27.90;30.10;;;;;;2233816;62;20396;-65
2022/09/07 00:45:10;0.00;0.00;0.62;0.00;0.00;0.62;5.80;5.30;;;27.90;30.10;;;;;;2233693;62;20743;-65
2022/09/07 00:48:01;0.00;0.00;0.62;0.00;0.00;0.62;6.17;5.60;;;27.90;30.20;;;;;;2233760;62;20391;-65
2022/09/07 00:50:49;0.00;0.00;0.62;0.00;0.00;0.62;5.97;5.47;;;27.90;30.20;;;;;;2233724;62;20380;-65
2022/09/07 00:53:40;0.00;0.00;0.62;0.00;0.00;0.62;5.27;4.80;;;27.90;30.20;;;;;;2233320;62;20440;-65
2022/09/07 00:56:31;0.00;0.00;0.62;0.00;0.00;0.62;6.17;5.67;;;27.90;30.20;;;;;;2233703;62;20357;-65
2022/09/07 00:59:21;0.00;0.00;0.62;0.00;0.00;0.62;6.47;5.87;;;27.90;30.40;;;;;;2233422;62;20586;-65
2022/09/07 01:02:07;0.00;0.00;0.62;0.00;0.00;0.62;8.10;6.30;;;27.90;30.40;;;;;;2233752;62;20589;-66
2022/09/07 01:04:59;0.00;0.00;0.62;0.00;0.00;0.62;5.77;5.17;;;27.90;30.30;;;;;;2233732;62;20381;-65
2022/09/07 01:07:44;0.00;0.00;0.62;0.00;0.00;0.62;5.40;4.90;;;27.90;30.40;;;;;;2233698;62;20451;-65
2022/09/07 01:10:31;0.00;0.00;0.62;0.00;0.00;0.62;6.50;5.23;;;27.80;30.30;;;;;;2233654;62;20515;-65
2022/09/07 01:13:16;0.00;0.00;0.62;0.00;0.00;0.62;6.70;5.97;;;27.90;30.40;;;;;;2233741;62;20364;-65
2022/09/07 01:16:11;0.00;0.00;0.62;0.00;0.00;0.62;5.73;5.27;;;27.90;30.40;;;;;;2233272;62;20396;-65
2022/09/07 01:19:23;0.00;0.00;0.62;0.00;0.00;0.62;6.10;5.60;;;27.90;30.40;;;;;;2233590;62;20377;-64
2022/09/07 01:22:25;0.00;0.00;0.62;0.00;0.00;0.62;5.70;5.20;;;27.90;30.60;;;;;;2233552;62;20393;-65
2022/09/07 01:25:12;0.00;0.00;0.62;0.00;0.00;0.62;6.13;5.63;;;27.90;30.50;;;;;;2233776;62;20360;-65
2022/09/07 01:28:11;0.00;0.00;0.62;0.00;0.00;0.62;5.33;4.83;;;27.90;30.50;;;;;;2233969;62;20380;-65
2022/09/07 01:30:57;0.00;0.00;0.62;0.00;0.00;0.62;5.60;5.20;;;27.80;30.40;;;;;;2233779;62;20400;-64
2022/09/07 01:33:50;0.00;0.00;0.62;0.00;0.00;0.62;6.23;5.73;;;27.80;30.50;;;;;;2234284;62;20363;-64
2022/09/07 01:36:46;0.00;0.00;0.62;0.00;0.00;0.62;5.83;5.17;;;27.80;30.50;;;;;;2234144;62;20433;-62
2022/09/07 01:39:44;0.00;0.00;0.62;0.00;0.00;0.62;5.83;5.33;;;27.80;30.70;;;;;;2234340;62;20613;-64
2022/09/07 01:42:36;0.00;0.00;0.62;0.00;0.00;0.62;6.07;5.57;;;27.80;30.80;;;;;;2234350;62;20462;-64
2022/09/07 01:45:30;0.00;0.00;0.62;0.00;0.00;0.62;5.80;5.20;;;27.80;30.80;;;;;;2234111;62;20404;-64
2022/09/07 01:48:17;0.00;0.00;0.62;0.00;0.00;0.62;6.57;5.97;;;27.80;30.80;;;;;;2234400;62;20376;-63
2022/09/07 01:51:04;0.00;0.00;0.62;0.00;0.00;0.62;8.10;5.70;;;27.80;30.80;;;;;;2236553;62;20411;-63
2022/09/07 01:53:54;0.00;0.00;0.62;0.00;0.00;0.62;5.53;5.10;;;27.80;30.80;;;;;;2234357;62;20437;-63
2022/09/07 01:56:43;0.00;0.00;0.62;0.00;0.00;0.62;6.23;5.73;;;27.80;30.90;;;;;;2234268;62;20404;-63
2022/09/07 01:59:31;0.00;0.00;0.62;0.00;0.00;0.62;6.27;5.63;;;27.80;30.80;;;;;;2234145;62;20363;-63
2022/09/07 02:02:21;0.00;0.00;0.62;0.00;0.00;0.62;7.07;6.37;;;27.80;30.80;;;;;;2234367;62;20376;-63
2022/09/07 02:05:11;0.00;0.00;0.62;0.00;0.00;0.62;5.90;5.40;;;27.80;30.90;;;;;;2236672;62;20716;-63
2022/09/07 02:08:00;0.00;0.00;0.62;0.00;0.00;0.62;6.20;5.60;;;27.70;30.90;;;;;;2234142;62;20388;-63
2022/09/07 02:10:52;0.00;0.00;0.62;0.00;0.00;0.62;6.33;5.20;;;27.70;30.80;;;;;;2234226;62;20796;-63
2022/09/07 02:13:40;0.00;0.00;0.62;0.00;0.00;0.62;6.00;5.50;;;27.70;30.80;;;;;;2234213;62;20348;-63
2022/09/07 02:16:28;0.00;0.00;0.62;0.00;0.00;0.62;6.27;5.57;;;27.70;30.90;;;;;;2234249;62;20356;-63
2022/09/07 02:19:18;0.00;0.00;0.62;0.00;0.00;0.62;5.40;5.00;;;27.70;30.90;;;;;;2234239;62;20585;-63
2022/09/07 02:22:09;0.00;0.00;0.62;0.00;0.00;0.62;6.33;5.73;;;27.70;30.90;;;;;;2234289;62;20361;-63
2022/09/07 02:24:58;0.00;0.00;0.62;0.00;0.00;0.62;9.03;5.63;;;27.70;30.90;;;;;;2234516;62;20429;-63
2022/09/07 02:27:47;0.00;0.00;0.62;0.00;0.00;0.62;6.33;5.70;;;27.70;30.80;;;;;;2234465;62;20377;-63
2022/09/07 02:30:32;0.00;0.00;0.62;0.00;0.00;0.62;6.90;6.30;;;27.70;30.90;;;;;;2234112;62;20748;-63
2022/09/07 02:33:17;0.00;0.00;0.62;0.00;0.00;0.62;7.40;6.70;;;27.70;30.90;;;;;;2236569;62;20368;-63
2022/09/07 02:36:05;0.00;0.00;0.62;0.00;0.00;0.62;8.97;6.10;;;27.70;31.00;;;;;;2234116;62;20764;-63
2022/09/07 02:38:50;0.00;0.00;0.62;0.00;0.00;0.62;6.63;6.13;;;27.70;31.20;;;;;;2234076;62;20700;-63
2022/09/07 02:41:38;0.00;0.00;0.62;0.00;0.00;0.62;6.20;5.60;;;27.70;31.20;;;;;;2234102;62;20644;-63
2022/09/07 02:44:30;0.00;0.00;0.62;0.00;0.00;0.62;6.40;5.90;;;27.70;31.10;;;;;;2233957;62;20613;-64
2022/09/07 02:47:30;0.00;0.00;0.62;0.00;0.00;0.62;6.00;5.50;;;27.70;31.00;;;;;;2234393;62;20417;-63
2022/09/07 02:50:34;0.00;0.00;0.62;0.00;0.00;0.62;6.30;5.80;;;27.70;31.10;;;;;;2234076;62;20383;-63
2022/09/07 02:53:49;0.00;0.00;0.62;0.00;0.00;0.62;5.57;5.17;;;27.70;31.00;;;;;;2234208;62;20744;-64
2022/09/07 02:56:52;0.00;0.00;0.62;0.00;0.00;0.62;6.90;6.30;;;27.70;31.00;;;;;;2234206;62;20450;-63
2022/09/07 02:59:50;0.00;0.00;0.62;0.00;0.00;0.62;7.30;6.70;;;27.70;31.10;;;;;;2233702;62;20379;-64
2022/09/07 03:02:49;0.00;0.00;0.62;0.00;0.00;0.62;6.77;6.27;;;27.70;31.10;;;;;;2234186;62;20585;-64
2022/09/07 03:05:41;0.00;0.00;0.62;0.00;0.00;0.62;7.10;6.50;;;27.70;31.10;;;;;;2234028;62;20364;-64
2022/09/07 03:08:34;0.00;0.00;0.62;0.00;0.00;0.62;7.30;6.60;;;27.70;31.20;;;;;;2234174;62;20408;-63
2022/09/07 03:11:20;0.00;0.00;0.62;0.00;0.00;0.62;8.90;7.27;;;27.60;31.80;;;;;;2234215;62;20384;-63
2022/09/07 03:14:15;0.00;0.00;0.62;0.00;0.00;0.62;8.97;8.17;;;27.70;31.40;;;;;;2233650;62;20456;-64
2022/09/07 03:17:01;0.00;0.00;0.62;0.00;0.00;0.62;7.17;6.63;;;27.60;31.70;;;;;;2234066;62;20568;-64
2022/09/07 03:19:46;0.00;0.00;0.62;0.00;0.00;0.62;8.17;7.47;;;27.60;31.80;;;;;;2233843;62;20388;-63
2022/09/07 03:22:33;0.00;0.00;0.62;0.00;0.00;0.62;7.27;6.70;;;27.60;31.80;;;;;;2234102;62;20689;-64
2022/09/07 03:25:21;0.00;0.00;0.62;0.00;0.00;0.62;8.03;7.27;;;27.60;31.80;;;;;;2234162;62;20397;-63
2022/09/07 03:28:06;0.00;0.00;0.62;0.00;0.00;0.62;7.37;6.77;;;27.50;31.70;;;;;;2233900;62;20388;-63
2022/09/07 03:30:51;0.00;0.00;0.62;0.00;0.00;0.62;6.83;6.13;;;27.50;31.90;;;;;;2234051;62;20395;-63
2022/09/07 03:33:36;0.00;0.00;0.62;0.00;0.00;0.62;7.33;6.73;;;27.40;31.70;;;;;;2234057;62;20426;-63
2022/09/07 03:36:20;0.00;0.00;0.62;0.00;0.00;0.62;6.70;6.10;;;27.40;31.70;;;;;;2233721;62;20376;-63
2022/09/07 03:39:06;0.00;0.00;0.62;0.00;0.00;0.62;6.50;5.90;;;27.40;31.70;;;;;;2233918;62;20360;-63
2022/09/07 03:41:52;0.00;0.00;0.62;0.00;0.00;0.62;6.07;5.67;;;27.40;31.70;;;;;;2233993;62;20420;-63
2022/09/07 03:44:37;0.00;0.00;0.62;0.00;0.00;0.62;7.87;6.80;;;27.40;31.70;;;;;;2234096;62;20376;-63
2022/09/07 03:47:22;0.00;0.00;0.62;0.00;0.00;0.62;7.40;6.80;;;27.40;31.80;;;;;;2233965;62;20383;-63
2022/09/07 03:50:07;0.00;0.00;0.62;0.00;0.00;0.62;8.47;7.57;;;27.40;32.10;;;;;;2233889;62;20380;-63
2022/09/07 03:52:52;0.00;0.00;0.62;0.00;0.00;0.62;7.60;6.93;;;27.40;32.40;;;;;;2233996;62;20381;-63
2022/09/07 03:55:37;0.00;0.00;0.62;0.00;0.00;0.62;8.00;7.30;;;27.30;32.70;;;;;;2233978;62;20352;-63
2022/09/07 03:58:23;0.00;0.00;0.62;0.00;0.00;0.62;10.10;7.00;;;27.30;32.80;;;;;;2233927;62;20378;-63
2022/09/07 04:01:11;0.00;0.00;0.62;0.00;0.00;0.62;8.07;7.37;;;27.20;32.90;;;;;;2234145;62;20868;-63
2022/09/07 04:03:58;0.00;0.00;0.62;0.00;0.00;0.62;7.20;6.60;;;27.20;33.10;;;;;;2234238;62;20388;-63
2022/09/07 04:06:43;0.00;0.00;0.62;0.00;0.00;0.62;10.00;7.67;;;27.20;33.30;;;;;;2233943;62;20461;-63
2022/09/07 04:09:27;0.00;0.00;0.62;0.00;0.00;0.62;8.37;7.67;;;27.10;33.30;;;;;;2233787;62;20742;-63
2022/09/07 04:12:12;0.00;0.00;0.62;0.00;0.00;0.62;7.30;6.60;;;27.10;33.60;;;;;;2233833;62;20344;-63
2022/09/07 04:14:59;0.00;0.00;0.62;0.00;0.00;0.62;8.23;7.43;;;27.00;33.50;;;;;;2233976;62;20753;-63
2022/09/07 04:17:43;0.00;0.00;0.62;0.00;0.00;0.62;8.10;7.37;;;27.00;33.60;;;;;;2233814;62;20364;-63
2022/09/07 04:20:29;0.00;0.00;0.62;0.00;0.00;0.62;7.47;6.77;;;27.00;33.90;;;;;;2233565;62;20774;-63
2022/09/07 04:23:15;0.00;0.00;0.62;0.00;0.00;0.62;7.87;7.17;;;26.90;33.90;;;;;;2234154;62;20798;-63
2022/09/07 04:26:00;0.00;0.00;0.62;0.00;0.00;0.62;7.00;6.07;;;26.90;34.20;;;;;;2234195;62;20796;-63
2022/09/07 04:28:45;0.00;0.00;0.62;0.00;0.00;0.62;7.50;6.80;;;26.90;34.30;;;;;;2233835;62;20372;-63
2022/09/07 04:31:33;0.00;0.00;0.62;0.00;0.00;0.62;7.17;6.47;;;26.90;34.20;;;;;;2233813;62;20490;-63
2022/09/07 04:34:18;0.00;0.00;0.62;0.00;0.00;0.62;7.57;6.83;;;26.90;34.10;;;;;;2233876;62;20367;-63
2022/09/07 04:37:03;0.00;0.00;0.62;0.00;0.00;0.62;7.53;6.90;;;26.90;34.00;;;;;;2233761;62;20629;-63
2022/09/07 04:39:48;0.00;0.00;0.62;0.00;0.00;0.62;7.50;6.83;;;26.90;34.20;;;;;;2233761;62;20755;-63
2022/09/07 04:42:33;0.00;0.00;0.62;0.00;0.00;0.62;7.73;7.13;;;26.90;34.30;;;;;;2233703;62;20380;-63
2022/09/07 04:45:18;0.00;0.00;0.62;0.00;0.00;0.62;7.63;6.97;;;26.90;34.30;;;;;;2234084;62;20368;-63
2022/09/07 04:48:05;0.00;0.00;0.62;0.00;0.00;0.62;7.27;6.67;;;26.90;34.60;;;;;;2234004;62;20640;-63
2022/09/07 04:50:51;0.00;0.00;0.62;0.00;0.00;0.62;8.63;7.93;;;26.90;34.70;;;;;;2233432;62;20384;-63
2022/09/07 04:53:37;0.00;0.00;0.62;0.00;0.00;0.62;7.70;7.00;;;26.90;34.70;;;;;;2233685;62;20364;-63
2022/09/07 04:56:23;0.00;0.00;0.62;0.00;0.00;0.62;7.13;6.53;;;26.90;34.80;;;;;;2233696;62;20360;-64
2022/09/07 04:59:08;0.00;0.00;0.62;0.00;0.00;0.62;8.57;7.40;;;26.90;34.70;;;;;;2233572;62;20368;-64
2022/09/07 05:01:52;0.00;0.00;0.62;0.00;0.00;0.62;7.40;6.70;;;26.90;34.60;;;;;;2233692;62;20369;-64
2022/09/07 05:04:38;0.00;0.00;0.62;0.00;0.00;0.62;6.33;5.73;;;26.90;34.60;;;;;;2234343;62;20689;-64
2022/09/07 05:07:23;0.00;0.00;0.62;0.00;0.00;0.62;8.43;7.60;;;26.90;34.50;;;;;;2234513;62;20493;-64
2022/09/07 05:10:08;0.00;0.00;0.62;0.00;0.00;0.62;6.90;6.20;;;26.90;34.70;;;;;;2234502;62;20504;-64
2022/09/07 05:12:53;0.00;0.00;0.62;0.00;0.00;0.62;7.77;7.07;;;26.90;34.70;;;;;;2234130;62;20360;-64
2022/09/07 05:15:38;0.00;0.00;0.62;0.00;0.00;0.62;6.47;5.90;;;27.00;34.70;;;;;;2234542;62;20592;-63
2022/09/07 05:18:22;0.00;0.00;0.62;0.00;0.00;0.62;6.43;5.93;;;27.00;34.60;;;;;;2234363;62;20360;-64
2022/09/07 05:21:11;0.00;0.00;0.62;0.00;0.00;0.62;6.77;6.03;;;27.00;34.50;;;;;;2234297;62;20432;-64
2022/09/07 05:23:57;0.00;0.00;0.62;0.00;0.00;0.62;6.10;5.60;;;27.00;34.40;;;;;;2234623;62;20708;-64
2022/09/07 05:26:42;0.00;0.00;0.62;0.00;0.00;0.62;6.60;5.90;;;27.00;34.40;;;;;;2234327;62;20388;-64
2022/09/07 05:29:27;0.00;0.00;0.62;0.00;0.00;0.62;11.20;6.90;;;27.00;34.40;;;;;;2234485;62;20368;-64
2022/09/07 05:32:11;0.00;0.00;0.62;0.00;0.00;0.62;6.67;5.40;;;27.00;34.30;;;;;;2234378;62;20371;-62
2022/09/07 05:34:56;0.00;0.00;0.62;0.00;0.00;0.62;5.90;5.40;;;27.10;34.20;;;;;;2234089;62;20434;-64
2022/09/07 05:37:43;0.00;0.00;0.62;0.00;0.00;0.62;7.73;7.03;;;27.10;34.20;;;;;;2234392;62;20356;-64
2022/09/07 05:40:31;0.00;0.00;0.62;0.00;0.00;0.62;7.23;6.57;;;27.10;34.30;;;;;;2234183;62;20424;-64
2022/09/07 05:43:16;0.00;0.00;0.62;0.00;0.00;0.62;7.20;6.60;;;27.10;34.50;;;;;;2234354;62;20353;-64
2022/09/07 05:46:00;0.00;0.00;0.62;0.00;0.00;0.62;9.70;6.57;;;27.10;34.40;;;;;;2234378;62;20620;-64
2022/09/07 05:48:46;0.00;0.00;0.62;0.00;0.00;0.62;6.97;6.37;;;27.10;34.50;;;;;;2234193;62;20629;-63
2022/09/07 05:51:31;0.00;0.00;0.62;0.00;0.00;0.62;8.30;7.60;;;27.20;34.60;;;;;;2234472;62;20751;-63
2022/09/07 05:54:17;0.00;0.00;0.62;0.00;0.00;0.62;7.33;6.60;;;27.20;34.70;;;;;;2234330;62;20425;-63
2022/09/07 05:57:02;0.00;0.00;0.62;0.00;0.00;0.62;8.23;7.43;;;27.20;34.90;;;;;;2234065;62;20419;-64
2022/09/07 05:59:47;0.00;0.00;0.62;0.00;0.00;0.62;8.20;7.50;;;27.20;34.90;;;;;;2234494;62;20380;-63
2022/09/07 06:02:32;0.00;0.00;0.62;0.00;0.00;0.62;7.83;7.20;;;27.20;34.90;;;;;;2233885;62;20345;-63
2022/09/07 06:05:17;0.00;0.00;0.62;0.00;0.00;0.62;8.33;7.63;;;27.20;34.70;;;;;;2234247;62;20653;-63
2022/09/07 06:08:02;0.00;0.00;0.62;0.00;0.00;0.62;9.00;8.30;;;27.20;34.70;;;;;;2234274;62;20755;-62
2022/09/07 06:10:48;0.00;0.00;0.62;0.00;0.00;0.62;8.80;8.00;;;27.20;35.00;;;;;;2233842;62;20392;-63
2022/09/07 06:13:34;0.00;0.00;0.62;0.00;0.00;0.62;8.47;7.70;;;27.10;35.10;;;;;;2234191;62;20645;-68
2022/09/07 06:16:20;0.00;0.00;0.62;0.00;0.00;0.62;8.60;7.90;;;27.10;35.00;;;;;;2233853;62;20400;-65
2022/09/07 06:19:06;0.00;0.00;0.62;0.00;0.00;0.62;7.20;6.60;;;27.10;35.00;;;;;;2233627;62;20441;-64
2022/09/07 06:21:51;0.00;0.00;0.62;0.00;0.00;0.62;8.53;7.63;;;27.10;34.90;;;;;;2236592;62;20356;-64
2022/09/07 06:24:36;0.00;0.00;0.62;0.00;0.00;0.62;7.90;7.20;;;27.10;34.90;;;;;;2234682;62;20400;-67
2022/09/07 06:27:22;0.00;0.00;0.62;0.00;0.00;0.62;7.93;7.07;;;27.10;34.80;;;;;;2234546;62;20599;-69
2022/09/07 06:30:09;0.00;0.00;0.62;0.00;0.00;0.62;7.83;6.80;;;27.10;34.80;;;;;;2234061;62;20719;-66
2022/09/07 06:32:54;0.00;0.00;0.62;0.00;0.00;0.62;7.40;6.80;;;27.10;34.90;;;;;;2234206;62;20614;-70
2022/09/07 06:35:39;0.00;0.00;0.62;0.00;0.00;0.62;8.60;7.40;;;27.10;34.80;;;;;;2234277;62;20360;-68
2022/09/07 06:38:24;0.00;0.00;0.62;0.00;0.00;0.62;11.77;7.83;;;27.10;34.80;;;;;;2234448;62;20437;-66
2022/09/07 06:41:14;0.00;0.00;0.62;0.00;0.00;0.62;7.90;7.20;;;27.10;35.00;;;;;;2234108;62;20600;-71
2022/09/07 06:44:00;0.00;0.00;0.62;0.00;0.00;0.62;8.07;7.27;;;27.10;35.20;;;;;;2234249;62;20417;-67
2022/09/07 06:46:45;0.00;0.00;0.62;0.00;0.00;0.62;7.00;6.30;;;27.10;35.10;;;;;;2234509;62;20368;-67
2022/09/07 06:49:30;0.00;0.00;0.62;0.00;0.00;0.62;6.30;5.80;;;27.10;35.00;;;;;;2234436;62;20412;-65
2022/09/07 06:52:15;0.00;0.00;0.62;0.00;0.00;0.62;8.23;7.53;;;27.10;34.90;;;;;;2236524;62;20745;-71
2022/09/07 06:55:00;0.00;0.00;0.62;0.00;0.00;0.62;7.97;7.17;;;27.10;35.00;;;;;;2236424;62;20747;-71
2022/09/07 06:57:45;0.00;0.00;0.62;0.00;0.00;0.62;9.30;8.43;;;27.10;35.60;;;;;;2234004;62;20359;-66
2022/09/07 07:00:31;0.00;0.00;0.62;0.00;0.00;0.62;9.97;8.40;;;27.10;35.70;;;;;;2233954;62;20478;-69
2022/09/07 07:03:16;0.00;0.00;0.62;0.00;0.00;0.62;9.40;8.60;;;27.10;35.90;;;;;;2233823;62;20417;-67
2022/09/07 07:06:01;0.00;0.00;0.62;0.00;0.00;0.62;8.70;8.00;;;27.10;36.20;;;;;;2234984;62;20371;-67
2022/09/07 07:08:47;0.00;0.00;0.62;0.00;0.00;0.62;8.70;8.00;;;27.10;36.10;;;;;;2234058;62;20411;-65
2022/09/07 07:11:32;0.00;0.00;0.62;0.00;0.00;0.62;9.60;8.70;;;27.10;36.00;;;;;;2233866;62;20392;-68
2022/09/07 07:14:17;0.00;0.00;0.62;0.00;0.00;0.62;8.87;8.07;;;27.10;36.10;;;;;;2234034;62;20368;-66
2022/09/07 07:17:03;0.00;0.00;0.62;0.00;0.00;0.62;9.13;8.30;;;27.10;36.30;;;;;;2233760;62;20581;-64
2022/09/07 07:19:48;0.00;0.00;0.62;0.00;0.00;0.62;9.07;8.30;;;27.10;36.40;;;;;;2233712;62;20780;-68
2022/09/07 07:22:33;0.00;0.00;0.62;0.00;0.00;0.62;9.87;8.67;;;27.10;36.50;;;;;;2233949;62;20408;-65
2022/09/07 07:25:19;0.00;0.00;0.62;0.00;0.00;0.62;9.23;8.37;;;27.10;36.90;;;;;;2233630;62;20373;-65
2022/09/07 07:28:04;0.00;0.00;0.62;0.00;0.00;0.62;8.90;8.00;;;27.00;36.90;;;;;;2234281;62;20411;-65
2022/09/07 07:30:55;0.00;0.00;0.62;0.00;0.00;0.62;8.60;7.80;;;27.00;37.10;;;;;;2233843;62;20452;-67
2022/09/07 07:33:42;0.00;0.00;0.62;0.00;0.00;0.62;8.57;7.80;;;27.00;37.30;;;;;;2233546;62;20368;-69
2022/09/07 07:36:27;0.00;0.00;0.62;0.00;0.00;0.62;11.33;9.40;;;27.00;37.60;;;;;;2233926;62;20368;-63
2022/09/07 07:39:11;0.00;0.00;0.62;0.00;0.00;0.62;8.77;7.97;;;27.00;37.90;;;;;;2233592;62;20367;-64
2022/09/07 07:41:56;0.00;0.00;0.62;0.00;0.00;0.62;8.50;7.70;;;26.90;37.80;;;;;;2233780;62;20405;-66
2022/09/07 07:44:41;0.00;0.00;0.62;0.00;0.00;0.62;8.57;7.57;;;26.90;37.90;;;;;;2233777;62;20437;-68
2022/09/07 07:47:25;0.00;0.00;0.62;0.00;0.00;0.62;8.73;7.90;;;26.90;38.00;;;;;;2233589;62;20757;-70
2022/09/07 07:50:11;0.00;0.00;0.62;0.00;0.00;0.62;9.60;8.80;;;26.90;38.10;;;;;;2234051;62;20416;-72
2022/09/07 07:52:56;0.00;0.00;0.62;0.00;0.00;0.62;8.43;7.63;;;26.80;38.20;;;;;;2233777;62;20769;-70
2022/09/07 07:55:41;0.00;0.00;0.62;0.00;0.00;0.62;10.07;8.00;;;26.90;38.40;;;;;;2233415;62;20372;-64
2022/09/07 07:58:27;0.00;0.00;0.62;0.00;0.00;0.62;8.20;7.50;;;26.80;38.30;;;;;;2233905;62;20389;-68
2022/09/07 08:01:15;0.00;0.00;0.62;0.00;0.00;0.62;8.43;7.70;;;26.80;38.40;;;;;;2233573;62;20612;-67
2022/09/07 08:03:59;0.00;0.00;0.62;0.00;0.00;0.62;8.33;7.53;;;26.80;38.60;;;;;;2233843;62;20364;-68
2022/09/07 08:06:46;0.00;0.00;0.62;0.00;0.00;0.62;8.17;6.87;;;26.80;38.50;;;;;;2236156;62;20372;-63
2022/09/07 08:09:31;0.00;0.00;0.62;0.00;0.00;0.62;7.47;6.87;;;26.80;38.50;;;;;;2233467;62;20365;-65
2022/09/07 08:12:18;0.00;0.00;0.62;0.00;0.00;0.62;7.87;6.90;;;26.80;38.50;;;;;;2234006;62;20369;-66
2022/09/07 08:15:03;0.00;0.00;0.62;0.00;0.00;0.62;7.20;6.60;;;26.80;38.60;;;;;;2233795;62;20452;-65
2022/09/07 08:17:48;0.00;0.00;0.62;0.00;0.00;0.62;7.27;6.57;;;26.80;38.40;;;;;;2233312;62;20413;-64
2022/09/07 08:20:33;0.00;0.00;0.62;0.00;0.00;0.62;7.10;6.40;;;26.80;38.40;;;;;;2235952;62;20379;-67
2022/09/07 08:23:19;0.00;0.00;0.62;0.00;0.00;0.62;6.33;5.83;;;26.80;38.40;;;;;;2233610;62;20755;-68
2022/09/07 08:26:05;0.00;0.00;0.62;0.00;0.00;0.62;7.77;7.07;;;26.90;38.40;;;;;;2234068;62;20500;-68
2022/09/07 08:28:50;0.00;0.00;0.62;0.00;0.00;0.62;7.30;6.60;;;26.90;38.60;;;;;;2232896;62;20827;-68
2022/09/07 08:31:35;0.00;0.00;0.62;0.00;0.00;0.62;6.77;6.20;;;26.90;38.60;;;;;;2231466;62;20400;-65
2022/09/07 08:34:20;0.00;0.00;0.62;0.00;0.00;0.62;6.80;6.20;;;26.90;38.50;;;;;;2458416;54;20373;-67
2022/09/07 08:37:05;0.00;0.00;0.62;0.00;0.00;0.62;6.43;5.87;;;27.00;38.60;;;;;;2230474;62;20590;-68
2022/09/07 08:39:51;0.00;0.00;0.62;0.00;0.00;0.62;6.90;6.23;;;27.00;38.50;;;;;;2232720;62;20400;-65
2022/09/07 08:42:47;0.00;0.00;0.62;0.00;0.00;0.62;7.33;6.57;;;27.00;38.40;;;;;;2229855;62;20361;-65
2022/09/07 08:45:37;0.00;0.00;0.62;0.00;0.00;0.62;7.20;6.50;;;27.00;38.50;;;;;;2232229;62;20380;-67
2022/09/07 08:48:28;0.00;0.00;0.62;0.00;0.00;0.62;7.30;6.70;;;27.00;38.40;;;;;;2232840;62;20476;-63
2022/09/07 08:51:21;0.00;0.00;0.62;0.00;0.00;0.62;6.77;6.17;;;27.10;38.50;;;;;;2233334;62;20440;-67
2022/09/07 08:54:07;0.00;0.00;0.62;0.00;0.00;0.62;6.77;5.90;;;27.10;38.50;;;;;;2286563;54;20372;-65
2022/09/07 08:57:01;0.00;0.00;0.62;0.00;0.00;0.62;7.30;6.70;;;27.10;38.40;;;;;;2231324;62;20369;-66
2022/09/07 08:59:50;0.00;0.00;0.62;0.00;0.00;0.62;7.00;6.40;;;27.20;38.60;;;;;;2229567;62;20385;-69
2022/09/07 09:02:35;0.00;0.00;0.62;0.00;0.00;0.62;6.80;6.20;;;27.20;38.40;;;;;;2229529;62;20406;-71
2022/09/07 09:05:29;0.00;0.00;0.62;0.00;0.00;0.62;6.10;5.60;;;27.20;39.10;;;;;;2229665;62;20376;-65
2022/09/07 09:08:32;0.00;0.00;0.62;0.00;0.00;0.62;7.83;5.60;;;27.20;38.30;;;;;;2229425;62;20392;-69
2022/09/07 09:11:26;0.00;0.00;0.62;0.00;0.00;0.62;6.23;5.63;;;27.30;38.40;;;;;;2232921;62;20603;-68
2022/09/07 09:14:26;0.00;0.00;0.62;0.00;0.00;0.62;6.93;6.43;;;27.30;38.40;;;;;;2233297;62;20373;-68
2022/09/07 09:17:22;0.00;0.00;0.62;0.00;0.00;0.62;6.63;6.03;;;27.40;38.20;;;;;;2232918;62;20376;-68
2022/09/07 09:20:22;0.00;0.00;0.62;0.00;0.00;0.62;6.30;5.80;;;27.40;38.30;;;;;;2233443;62;20388;-73
2022/09/07 09:23:12;0.00;0.00;0.62;0.00;0.00;0.62;5.63;5.23;;;27.40;38.20;;;;;;2233151;62;20376;-67
2022/09/07 09:26:01;0.00;0.00;0.62;0.00;0.00;0.62;5.53;5.13;;;27.40;38.20;;;;;;2233703;62;20773;-66
2022/09/07 09:28:48;0.00;0.00;0.62;0.00;0.00;0.62;5.80;5.23;;;27.50;38.20;;;;;;2233363;62;20401;-68
2022/09/07 09:31:35;0.00;0.00;0.62;0.00;0.00;0.62;5.77;5.27;;;27.50;38.00;;;;;;2232993;62;20448;-66
2022/09/07 09:34:20;0.00;0.00;0.62;0.00;0.00;0.62;5.50;5.07;;;27.50;37.90;;;;;;2233596;62;20368;-68
2022/09/07 09:37:10;0.00;0.00;0.62;0.00;0.00;0.62;5.13;4.63;;;27.60;37.80;;;;;;2233100;62;20596;-66
2022/09/07 09:39:57;0.00;0.00;0.62;0.00;0.00;0.62;5.63;5.13;;;27.60;37.70;;;;;;2233375;62;20421;-68
2022/09/07 09:42:43;0.00;0.00;0.62;0.00;0.00;0.62;5.33;4.90;;;27.70;37.80;;;;;;2233455;62;20401;-66
2022/09/07 09:45:33;0.00;0.00;0.62;0.00;0.00;0.62;5.47;5.07;;;27.70;37.60;;;;;;2230100;62;20373;-66
2022/09/07 09:48:28;0.00;0.00;0.62;0.00;0.00;0.62;6.47;5.90;;;27.70;37.60;;;;;;2229849;62;20617;-66
2022/09/07 09:51:14;0.00;0.00;0.62;0.00;0.00;0.62;4.80;4.40;;;27.80;37.50;;;;;;2230026;62;20384;-68
2022/09/07 09:54:04;0.00;0.00;0.62;0.00;0.00;0.62;5.83;5.30;;;27.80;37.40;;;;;;2229836;62;20909;-67
2022/09/07 09:56:50;0.00;0.00;0.62;0.00;0.00;0.62;6.00;5.40;;;27.80;37.30;;;;;;2230132;62;20628;-65
2022/09/07 09:59:35;0.00;0.00;0.62;0.00;0.00;0.62;5.07;4.67;;;27.90;37.50;;;;;;2230215;62;20412;-64
2022/09/07 10:02:30;0.00;0.00;0.62;0.00;0.00;0.62;5.60;5.10;;;27.90;37.30;;;;;;2308834;54;20369;-67
2022/09/07 10:05:29;0.00;0.00;0.62;0.00;0.00;0.62;4.80;4.40;;;27.90;37.30;;;;;;2234133;62;20364;-64
2022/09/07 10:08:19;0.00;0.00;0.62;0.00;0.00;0.62;5.50;5.10;;;28.00;37.20;;;;;;2233727;62;20393;-64
2022/09/07 10:11:07;0.00;0.00;0.62;0.00;0.00;0.62;5.23;4.80;;;28.00;37.10;;;;;;2234488;62;20428;-65
2022/09/07 10:13:56;0.00;0.00;0.62;0.00;0.00;0.62;6.40;5.00;;;28.00;37.00;;;;;;2234446;62;20409;-65
2022/09/07 10:16:43;0.00;0.00;0.62;0.00;0.00;0.62;5.77;5.17;;;28.10;37.10;;;;;;2234099;62;20368;-64
2022/09/07 10:19:35;0.00;0.00;0.62;0.00;0.00;0.62;6.90;5.20;;;28.10;37.00;;;;;;2234193;62;20397;-64
2022/09/07 10:22:32;0.00;0.00;0.62;0.00;0.00;0.62;4.83;4.43;;;28.10;37.00;;;;;;2234027;62;20356;-63
2022/09/07 10:25:29;0.00;0.00;0.62;0.00;0.00;0.62;6.13;5.53;;;28.20;37.10;;;;;;2234233;62;20373;-63
2022/09/07 10:28:20;0.00;0.00;0.62;0.00;0.00;0.62;6.13;5.57;;;28.20;37.10;;;;;;2233951;62;20465;-63
2022/09/07 10:31:15;0.00;0.00;0.62;0.00;0.00;0.62;5.83;5.33;;;28.20;37.00;;;;;;2233704;62;20703;-63
2022/09/07 10:34:09;0.00;0.00;0.62;0.00;0.00;0.62;5.90;5.37;;;28.20;37.00;;;;;;2234092;62;20436;-63
2022/09/07 10:37:01;0.00;0.00;0.62;0.00;0.00;0.62;4.93;4.37;;;28.20;36.90;;;;;;2233720;62;20364;-63
2022/09/07 10:40:03;0.00;0.00;0.62;0.00;0.00;0.62;5.27;4.77;;;28.30;36.90;;;;;;2233926;62;20406;-63
2022/09/07 10:42:57;0.00;0.00;0.62;0.00;0.00;0.62;5.97;4.90;;;28.30;36.90;;;;;;2233731;62;20570;-63
2022/09/07 10:46:01;0.00;0.00;0.62;0.00;0.00;0.62;5.20;4.80;;;28.40;36.80;;;;;;2233679;62;20803;-63
2022/09/07 10:49:00;0.00;0.00;0.62;0.00;0.00;0.62;5.00;4.50;;;28.40;36.80;;;;;;2233876;62;20427;-63
2022/09/07 10:52:02;0.00;0.00;0.62;0.00;0.00;0.62;4.67;4.27;;;28.40;36.70;;;;;;2233893;62;20372;-63
2022/09/07 10:54:55;0.00;0.00;0.62;0.00;0.00;0.62;5.63;5.10;;;28.40;36.70;;;;;;2234129;62;20360;-63
2022/09/07 10:58:00;0.00;0.00;0.62;0.00;0.00;0.62;8.03;4.57;;;28.40;36.60;;;;;;2236068;62;20371;-65
2022/09/07 11:00:59;0.00;0.00;0.62;0.00;0.00;0.62;4.60;4.20;;;28.50;36.60;;;;;;2233278;62;20384;-63
2022/09/07 11:04:14;0.00;0.00;0.62;0.00;0.00;0.62;5.17;4.70;;;28.50;36.50;;;;;;2234016;62;20388;-63